createdAt,value
2015-03-17T00:00:16.840Z,100894
2015-03-17T00:00:35.527Z,100903
2015-03-17T00:00:53.574Z,100900
2015-03-17T00:01:12.264Z,100903
2015-03-17T00:01:30.968Z,100917
2015-03-17T00:01:49.639Z,100905
2015-03-17T00:02:08.327Z,100900
2015-03-17T00:02:27.049Z,100897
2015-03-17T00:02:45.705Z,100894
2015-03-17T00:03:04.408Z,100903
2015-03-17T00:03:23.098Z,100908
2015-03-17T00:03:41.801Z,100905
2015-03-17T00:04:00.473Z,100888
2015-03-17T00:04:19.178Z,100897
2015-03-17T00:04:37.896Z,100894
2015-03-17T00:04:56.553Z,100897
2015-03-17T00:05:15.259Z,100905
2015-03-17T00:05:33.978Z,100891
2015-03-17T00:05:52.649Z,100908
2015-03-17T00:06:11.337Z,100911
2015-03-17T00:06:30.042Z,100905
2015-03-17T00:06:48.714Z,100900
2015-03-17T00:07:07.417Z,100908
2015-03-17T00:07:26.107Z,100911
2015-03-17T00:07:44.810Z,100900
2015-03-17T00:08:03.497Z,100903
2015-03-17T00:08:22.187Z,100897
2015-03-17T00:08:40.890Z,100900
2015-03-17T00:08:59.577Z,100908
2015-03-17T00:09:18.251Z,100902
2015-03-17T00:09:36.939Z,100902
2015-03-17T00:09:55.470Z,100899
2015-03-17T00:10:14.173Z,100899
2015-03-17T00:10:32.848Z,100902
2015-03-17T00:10:51.535Z,100893
2015-03-17T00:11:10.207Z,100896
2015-03-17T00:11:28.912Z,100902
2015-03-17T00:11:47.569Z,100893
2015-03-17T00:12:06.256Z,100899
2015-03-17T00:12:24.947Z,100896
2015-03-17T00:12:43.619Z,100902
2015-03-17T00:13:02.290Z,100893
2015-03-17T00:13:20.996Z,100902
2015-03-17T00:13:39.667Z,100893
2015-03-17T00:13:58.339Z,100902
2015-03-17T00:14:17.030Z,100899
2015-03-17T00:14:35.702Z,100893
2015-03-17T00:14:54.405Z,100899
2015-03-17T00:15:13.077Z,100899
2015-03-17T00:15:31.766Z,100890
2015-03-17T00:15:50.454Z,100893
2015-03-17T00:16:09.157Z,100902
2015-03-17T00:16:27.846Z,100910
2015-03-17T00:16:46.534Z,100907
2015-03-17T00:17:05.221Z,100910
2015-03-17T00:17:24.036Z,100904
2015-03-17T00:17:42.723Z,100907
2015-03-17T00:18:01.411Z,100904
2015-03-17T00:18:20.101Z,100901
2015-03-17T00:18:38.758Z,100896
2015-03-17T00:18:57.445Z,100899
2015-03-17T00:19:16.133Z,100901
2015-03-17T00:19:34.822Z,100901
2015-03-17T00:19:53.510Z,100899
2015-03-17T00:20:12.181Z,100899
2015-03-17T00:20:30.888Z,100901
2015-03-17T00:20:49.575Z,100902
2015-03-17T00:21:08.247Z,100904
2015-03-17T00:21:26.952Z,100904
2015-03-17T00:21:45.608Z,100902
2015-03-17T00:22:04.296Z,100907
2015-03-17T00:22:23.000Z,100899
2015-03-17T00:22:41.687Z,100899
2015-03-17T00:23:00.344Z,100896
2015-03-17T00:23:19.016Z,100904
2015-03-17T00:23:37.706Z,100896
2015-03-17T00:23:56.378Z,100907
2015-03-17T00:24:15.159Z,100899
2015-03-17T00:24:33.850Z,100896
2015-03-17T00:24:52.553Z,100893
2015-03-17T00:25:11.256Z,100902
2015-03-17T00:25:29.945Z,100890
2015-03-17T00:25:48.617Z,100893
2015-03-17T00:26:07.305Z,100896
2015-03-17T00:26:25.995Z,100896
2015-03-17T00:26:44.698Z,100896
2015-03-17T00:27:03.386Z,100899
2015-03-17T00:27:22.058Z,100902
2015-03-17T00:27:40.746Z,100902
2015-03-17T00:27:59.434Z,100899
2015-03-17T00:28:18.121Z,100893
2015-03-17T00:28:36.812Z,100890
2015-03-17T00:28:55.484Z,100899
2015-03-17T00:29:14.171Z,100899
2015-03-17T00:29:32.861Z,100896
2015-03-17T00:29:51.548Z,100888
2015-03-17T00:30:10.236Z,100891
2015-03-17T00:30:28.910Z,100902
2015-03-17T00:30:47.581Z,100899
2015-03-17T00:31:06.253Z,100905
2015-03-17T00:31:24.956Z,100899
2015-03-17T00:31:43.631Z,100899
2015-03-17T00:32:02.334Z,100900
2015-03-17T00:32:21.006Z,100897
2015-03-17T00:32:39.711Z,100891
2015-03-17T00:32:58.383Z,100905
2015-03-17T00:33:17.086Z,100894
2015-03-17T00:33:35.745Z,100908
2015-03-17T00:33:54.557Z,100906
2015-03-17T00:34:13.245Z,100897
2015-03-17T00:34:31.951Z,100903
2015-03-17T00:34:50.638Z,100909
2015-03-17T00:35:09.310Z,100900
2015-03-17T00:35:27.998Z,100897
2015-03-17T00:35:46.687Z,100906
2015-03-17T00:36:05.375Z,100903
2015-03-17T00:36:24.078Z,100906
2015-03-17T00:36:42.752Z,100903
2015-03-17T00:37:01.424Z,100912
2015-03-17T00:37:20.111Z,100903
2015-03-17T00:37:38.802Z,100917
2015-03-17T00:37:57.489Z,100906
2015-03-17T00:38:16.177Z,100912
2015-03-17T00:38:34.835Z,100912
2015-03-17T00:38:53.538Z,100915
2015-03-17T00:39:12.194Z,100900
2015-03-17T00:39:30.241Z,100906
2015-03-17T00:39:48.931Z,100906
2015-03-17T00:40:07.602Z,100903
2015-03-17T00:40:26.306Z,100900
2015-03-17T00:40:44.995Z,100909
2015-03-17T00:41:03.651Z,100906
2015-03-17T00:41:22.323Z,100912
2015-03-17T00:41:41.014Z,100903
2015-03-17T00:41:59.732Z,100912
2015-03-17T00:42:18.420Z,100903
2015-03-17T00:42:37.079Z,100906
2015-03-17T00:42:55.767Z,100912
2015-03-17T00:43:14.470Z,100915
2015-03-17T00:43:33.157Z,100918
2015-03-17T00:43:51.847Z,100906
2015-03-17T00:44:10.534Z,100912
2015-03-17T00:44:29.222Z,100909
2015-03-17T00:44:47.911Z,100906
2015-03-17T00:45:06.583Z,100918
2015-03-17T00:45:25.271Z,100915
2015-03-17T00:45:43.960Z,100909
2015-03-17T00:46:02.648Z,100906
2015-03-17T00:46:21.335Z,100909
2015-03-17T00:46:40.010Z,100904
2015-03-17T00:46:58.713Z,100898
2015-03-17T00:47:16.744Z,100909
2015-03-17T00:47:35.416Z,100904
2015-03-17T00:47:54.106Z,100909
2015-03-17T00:48:12.793Z,100915
2015-03-17T00:48:31.465Z,100906
2015-03-17T00:48:50.156Z,100904
2015-03-17T00:49:08.828Z,100904
2015-03-17T00:49:27.499Z,100904
2015-03-17T00:49:46.205Z,100912
2015-03-17T00:50:04.876Z,100906
2015-03-17T00:50:23.564Z,100909
2015-03-17T00:50:42.253Z,100912
2015-03-17T00:51:00.941Z,100912
2015-03-17T00:51:19.644Z,100909
2015-03-17T00:51:38.318Z,100909
2015-03-17T00:51:57.005Z,100909
2015-03-17T00:52:15.693Z,100901
2015-03-17T00:52:34.427Z,100909
2015-03-17T00:52:53.086Z,100901
2015-03-17T00:53:11.773Z,100898
2015-03-17T00:53:30.461Z,100904
2015-03-17T00:53:49.167Z,100906
2015-03-17T00:54:07.839Z,100906
2015-03-17T00:54:26.542Z,100906
2015-03-17T00:54:45.216Z,100909
2015-03-17T00:55:03.887Z,100909
2015-03-17T00:55:22.575Z,100912
2015-03-17T00:55:41.265Z,100909
2015-03-17T00:55:59.937Z,100915
2015-03-17T00:56:18.640Z,100909
2015-03-17T00:56:37.328Z,100918
2015-03-17T00:56:56.017Z,100909
2015-03-17T00:57:14.721Z,100904
2015-03-17T00:57:33.408Z,100912
2015-03-17T00:57:52.067Z,100904
2015-03-17T00:58:10.114Z,100918
2015-03-17T00:58:28.802Z,100909
2015-03-17T00:58:47.476Z,100912
2015-03-17T00:59:06.147Z,100915
2015-03-17T00:59:24.835Z,100907
2015-03-17T00:59:43.524Z,100912
2015-03-17T01:00:02.196Z,100912
2015-03-17T01:00:20.915Z,100907
2015-03-17T01:00:39.587Z,100907
2015-03-17T01:00:58.276Z,100912
2015-03-17T01:01:16.964Z,100907
2015-03-17T01:01:35.651Z,100918
2015-03-17T01:01:54.342Z,100898
2015-03-17T01:02:13.014Z,100907
2015-03-17T01:02:31.701Z,100907
2015-03-17T01:02:50.391Z,100915
2015-03-17T01:03:09.063Z,100912
2015-03-17T01:03:27.750Z,100918
2015-03-17T01:03:46.438Z,100907
2015-03-17T01:04:05.112Z,100918
2015-03-17T01:04:23.799Z,100918
2015-03-17T01:04:42.487Z,100912
2015-03-17T01:05:01.177Z,100918
2015-03-17T01:05:19.880Z,100927
2015-03-17T01:05:38.552Z,100927
2015-03-17T01:05:57.242Z,100924
2015-03-17T01:06:15.960Z,100933
2015-03-17T01:06:34.632Z,100918
2015-03-17T01:06:53.337Z,100927
2015-03-17T01:07:12.009Z,100915
2015-03-17T01:07:30.712Z,100924
2015-03-17T01:07:49.400Z,100918
2015-03-17T01:08:08.106Z,100924
2015-03-17T01:08:26.809Z,100924
2015-03-17T01:08:45.465Z,100924
2015-03-17T01:09:04.170Z,100924
2015-03-17T01:09:22.842Z,100918
2015-03-17T01:09:41.545Z,100924
2015-03-17T01:10:00.219Z,100915
2015-03-17T01:10:18.922Z,100927
2015-03-17T01:10:37.626Z,100918
2015-03-17T01:10:56.331Z,100927
2015-03-17T01:11:15.018Z,100927
2015-03-17T01:11:33.706Z,100929
2015-03-17T01:11:52.393Z,100929
2015-03-17T01:12:11.084Z,100932
2015-03-17T01:12:29.740Z,100927
2015-03-17T01:12:48.443Z,100924
2015-03-17T01:13:07.133Z,100935
2015-03-17T01:13:25.804Z,100932
2015-03-17T01:13:44.492Z,100926
2015-03-17T01:14:03.150Z,100932
2015-03-17T01:14:21.838Z,100929
2015-03-17T01:14:40.525Z,100929
2015-03-17T01:14:59.247Z,100932
2015-03-17T01:15:17.934Z,100929
2015-03-17T01:15:36.606Z,100921
2015-03-17T01:15:55.296Z,100918
2015-03-17T01:16:13.983Z,100921
2015-03-17T01:16:32.686Z,100926
2015-03-17T01:16:51.358Z,100918
2015-03-17T01:17:10.049Z,100915
2015-03-17T01:17:28.752Z,100918
2015-03-17T01:17:47.408Z,100918
2015-03-17T01:18:06.098Z,100921
2015-03-17T01:18:24.801Z,100926
2015-03-17T01:18:43.473Z,100918
2015-03-17T01:19:02.382Z,100921
2015-03-17T01:19:20.851Z,100941
2015-03-17T01:19:39.554Z,100926
2015-03-17T01:19:58.227Z,100929
2015-03-17T01:20:16.914Z,100923
2015-03-17T01:20:35.602Z,100918
2015-03-17T01:20:54.289Z,100918
2015-03-17T01:21:12.980Z,100912
2015-03-17T01:21:31.667Z,100915
2015-03-17T01:21:50.355Z,100918
2015-03-17T01:22:09.060Z,100921
2015-03-17T01:22:27.732Z,100915
2015-03-17T01:22:46.419Z,100921
2015-03-17T01:23:05.094Z,100921
2015-03-17T01:23:23.766Z,100924
2015-03-17T01:23:42.469Z,100921
2015-03-17T01:24:01.143Z,100915
2015-03-17T01:24:19.846Z,100909
2015-03-17T01:24:38.518Z,100921
2015-03-17T01:24:57.205Z,100927
2015-03-17T01:25:15.911Z,100912
2015-03-17T01:25:34.614Z,100915
2015-03-17T01:25:53.301Z,100921
2015-03-17T01:26:11.992Z,100921
2015-03-17T01:26:30.664Z,100918
2015-03-17T01:26:49.351Z,100915
2015-03-17T01:27:08.041Z,100924
2015-03-17T01:27:26.712Z,100912
2015-03-17T01:27:45.416Z,100930
2015-03-17T01:28:04.136Z,100910
2015-03-17T01:28:22.839Z,100910
2015-03-17T01:28:41.496Z,100924
2015-03-17T01:29:00.199Z,100921
2015-03-17T01:29:18.873Z,100918
2015-03-17T01:29:37.560Z,100924
2015-03-17T01:29:56.248Z,100927
2015-03-17T01:30:14.923Z,100924
2015-03-17T01:30:33.626Z,100915
2015-03-17T01:30:52.298Z,100921
2015-03-17T01:31:11.003Z,100924
2015-03-17T01:31:29.659Z,100921
2015-03-17T01:31:48.346Z,100915
2015-03-17T01:32:07.052Z,100924
2015-03-17T01:32:25.723Z,100915
2015-03-17T01:32:44.427Z,100924
2015-03-17T01:33:03.114Z,100927
2015-03-17T01:33:21.804Z,100924
2015-03-17T01:33:40.491Z,100918
2015-03-17T01:33:59.163Z,100924
2015-03-17T01:34:17.869Z,100921
2015-03-17T01:34:36.541Z,100921
2015-03-17T01:34:55.244Z,100921
2015-03-17T01:35:13.277Z,100935
2015-03-17T01:35:31.980Z,100927
2015-03-17T01:35:50.668Z,100929
2015-03-17T01:36:09.358Z,100924
2015-03-17T01:36:28.030Z,100915
2015-03-17T01:36:46.718Z,100921
2015-03-17T01:37:04.780Z,100923
2015-03-17T01:37:23.454Z,100915
2015-03-17T01:37:42.142Z,100926
2015-03-17T01:38:00.814Z,100920
2015-03-17T01:38:19.503Z,100920
2015-03-17T01:38:38.159Z,100909
2015-03-17T01:38:56.862Z,100923
2015-03-17T01:39:15.537Z,100909
2015-03-17T01:39:34.225Z,100918
2015-03-17T01:39:52.912Z,100918
2015-03-17T01:40:11.602Z,100918
2015-03-17T01:40:30.289Z,100923
2015-03-17T01:40:48.961Z,100915
2015-03-17T01:41:07.651Z,100918
2015-03-17T01:41:26.338Z,100926
2015-03-17T01:41:45.026Z,100923
2015-03-17T01:42:03.713Z,100920
2015-03-17T01:42:22.404Z,100923
2015-03-17T01:42:41.091Z,100926
2015-03-17T01:42:59.763Z,100921
2015-03-17T01:43:18.468Z,100915
2015-03-17T01:43:37.156Z,100926
2015-03-17T01:43:55.828Z,100926
2015-03-17T01:44:14.517Z,100926
2015-03-17T01:44:33.189Z,100921
2015-03-17T01:44:51.876Z,100923
2015-03-17T01:45:10.567Z,100926
2015-03-17T01:45:29.270Z,100924
2015-03-17T01:45:47.958Z,100912
2015-03-17T01:46:06.645Z,100915
2015-03-17T01:46:25.319Z,100921
2015-03-17T01:46:44.006Z,100921
2015-03-17T01:47:02.835Z,100924
2015-03-17T01:47:21.508Z,100918
2015-03-17T01:47:40.212Z,100921
2015-03-17T01:47:58.868Z,100921
2015-03-17T01:48:17.557Z,100924
2015-03-17T01:48:36.245Z,100929
2015-03-17T01:48:54.932Z,100918
2015-03-17T01:49:13.592Z,100921
2015-03-17T01:49:32.279Z,100915
2015-03-17T01:49:50.951Z,100927
2015-03-17T01:50:09.654Z,100915
2015-03-17T01:50:28.328Z,100909
2015-03-17T01:50:47.015Z,100929
2015-03-17T01:51:05.703Z,100918
2015-03-17T01:51:24.392Z,100924
2015-03-17T01:51:43.096Z,100927
2015-03-17T01:52:01.783Z,100921
2015-03-17T01:52:20.474Z,100921
2015-03-17T01:52:39.145Z,100927
2015-03-17T01:52:57.817Z,100935
2015-03-17T01:53:16.523Z,100927
2015-03-17T01:53:35.195Z,100918
2015-03-17T01:53:53.883Z,100921
2015-03-17T01:54:12.572Z,100929
2015-03-17T01:54:31.260Z,100918
2015-03-17T01:54:49.932Z,100932
2015-03-17T01:55:08.604Z,100927
2015-03-17T01:55:27.323Z,100924
2015-03-17T01:55:45.995Z,100929
2015-03-17T01:56:04.698Z,100921
2015-03-17T01:56:23.389Z,100921
2015-03-17T01:56:42.076Z,100927
2015-03-17T01:57:00.764Z,100918
2015-03-17T01:57:19.453Z,100932
2015-03-17T01:57:38.141Z,100921
2015-03-17T01:57:56.844Z,100918
2015-03-17T01:58:15.519Z,100935
2015-03-17T01:58:34.222Z,100921
2015-03-17T01:58:52.894Z,100927
2015-03-17T01:59:11.613Z,100921
2015-03-17T01:59:30.302Z,100927
2015-03-17T01:59:48.974Z,100927
2015-03-17T02:00:07.661Z,100915
2015-03-17T02:00:26.382Z,100927
2015-03-17T02:00:45.054Z,100915
2015-03-17T02:01:03.742Z,100924
2015-03-17T02:01:22.463Z,100924
2015-03-17T02:01:41.135Z,100912
2015-03-17T02:01:59.823Z,100921
2015-03-17T02:02:18.497Z,100927
2015-03-17T02:02:37.200Z,100918
2015-03-17T02:02:55.872Z,100924
2015-03-17T02:03:14.559Z,100927
2015-03-17T02:03:33.250Z,100929
2015-03-17T02:03:51.906Z,100927
2015-03-17T02:04:10.609Z,100927
2015-03-17T02:04:29.298Z,100921
2015-03-17T02:04:47.986Z,100918
2015-03-17T02:05:06.689Z,100927
2015-03-17T02:05:25.364Z,100918
2015-03-17T02:05:44.051Z,100927
2015-03-17T02:06:02.755Z,100927
2015-03-17T02:06:21.443Z,100927
2015-03-17T02:06:40.131Z,100912
2015-03-17T02:06:58.818Z,100912
2015-03-17T02:07:17.506Z,100918
2015-03-17T02:07:36.195Z,100924
2015-03-17T02:07:54.898Z,100915
2015-03-17T02:08:13.586Z,100921
2015-03-17T02:08:32.292Z,100927
2015-03-17T02:08:50.964Z,100927
2015-03-17T02:09:09.651Z,100929
2015-03-17T02:09:28.325Z,100915
2015-03-17T02:09:47.028Z,100915
2015-03-17T02:10:05.716Z,100929
2015-03-17T02:10:24.422Z,100921
2015-03-17T02:10:43.109Z,100923
2015-03-17T02:11:01.781Z,100923
2015-03-17T02:11:20.484Z,100926
2015-03-17T02:11:39.158Z,100920
2015-03-17T02:11:57.861Z,100923
2015-03-17T02:12:16.564Z,100920
2015-03-17T02:12:35.239Z,100917
2015-03-17T02:12:53.942Z,100929
2015-03-17T02:13:12.630Z,100926
2015-03-17T02:13:31.304Z,100931
2015-03-17T02:13:49.991Z,100931
2015-03-17T02:14:08.679Z,100926
2015-03-17T02:14:27.368Z,100928
2015-03-17T02:14:45.900Z,100923
2015-03-17T02:15:04.603Z,100926
2015-03-17T02:15:23.290Z,100931
2015-03-17T02:15:41.995Z,100926
2015-03-17T02:16:00.667Z,100934
2015-03-17T02:16:19.370Z,100920
2015-03-17T02:16:38.075Z,100929
2015-03-17T02:16:56.747Z,100937
2015-03-17T02:17:15.435Z,100934
2015-03-17T02:17:34.125Z,100923
2015-03-17T02:17:52.797Z,100932
2015-03-17T02:18:11.500Z,100934
2015-03-17T02:18:30.160Z,100932
2015-03-17T02:18:48.863Z,100923
2015-03-17T02:19:07.535Z,100929
2015-03-17T02:19:26.222Z,100932
2015-03-17T02:19:44.926Z,100926
2015-03-17T02:20:03.614Z,100929
2015-03-17T02:20:22.301Z,100932
2015-03-17T02:20:40.992Z,100926
2015-03-17T02:20:59.695Z,100920
2015-03-17T02:21:18.414Z,100929
2015-03-17T02:21:37.073Z,100926
2015-03-17T02:21:55.760Z,100929
2015-03-17T02:22:14.448Z,100923
2015-03-17T02:22:33.137Z,100932
2015-03-17T02:22:51.825Z,100918
2015-03-17T02:23:10.481Z,100926
2015-03-17T02:23:29.184Z,100926
2015-03-17T02:23:47.874Z,100912
2015-03-17T02:24:06.577Z,100920
2015-03-17T02:24:25.249Z,100926
2015-03-17T02:24:43.939Z,100929
2015-03-17T02:25:02.627Z,100926
2015-03-17T02:25:21.330Z,100920
2015-03-17T02:25:40.003Z,100915
2015-03-17T02:25:58.706Z,100918
2015-03-17T02:26:17.393Z,100915
2015-03-17T02:26:36.099Z,100918
2015-03-17T02:26:54.756Z,100926
2015-03-17T02:27:13.443Z,100926
2015-03-17T02:27:32.131Z,100918
2015-03-17T02:27:50.820Z,100920
2015-03-17T02:28:09.508Z,100926
2015-03-17T02:28:28.211Z,100917
2015-03-17T02:28:46.886Z,100920
2015-03-17T02:29:05.573Z,100926
2015-03-17T02:29:24.276Z,100917
2015-03-17T02:29:42.966Z,100920
2015-03-17T02:30:01.653Z,100929
2015-03-17T02:30:20.356Z,100920
2015-03-17T02:30:39.062Z,100926
2015-03-17T02:30:57.765Z,100917
2015-03-17T02:31:16.452Z,100920
2015-03-17T02:31:35.140Z,100926
2015-03-17T02:31:53.845Z,100920
2015-03-17T02:32:11.876Z,100920
2015-03-17T02:32:30.579Z,100923
2015-03-17T02:32:49.285Z,100928
2015-03-17T02:33:07.957Z,100917
2015-03-17T02:33:26.645Z,100923
2015-03-17T02:33:45.334Z,100926
2015-03-17T02:34:04.037Z,100917
2015-03-17T02:34:22.725Z,100917
2015-03-17T02:34:41.415Z,100917
2015-03-17T02:35:00.103Z,100914
2015-03-17T02:35:18.790Z,100934
2015-03-17T02:35:37.478Z,100926
2015-03-17T02:35:56.183Z,100926
2015-03-17T02:36:14.870Z,100935
2015-03-17T02:36:33.558Z,100926
2015-03-17T02:36:52.263Z,100926
2015-03-17T02:37:10.951Z,100929
2015-03-17T02:37:29.638Z,100923
2015-03-17T02:37:48.329Z,100923
2015-03-17T02:38:07.047Z,100926
2015-03-17T02:38:25.719Z,100923
2015-03-17T02:38:44.424Z,100929
2015-03-17T02:39:03.096Z,100917
2015-03-17T02:39:21.799Z,100917
2015-03-17T02:39:40.502Z,100920
2015-03-17T02:39:59.177Z,100918
2015-03-17T02:40:17.865Z,100932
2015-03-17T02:40:36.568Z,100909
2015-03-17T02:40:55.272Z,100920
2015-03-17T02:41:13.975Z,100912
2015-03-17T02:41:32.647Z,100915
2015-03-17T02:41:51.338Z,100915
2015-03-17T02:42:10.025Z,100906
2015-03-17T02:42:28.728Z,100906
2015-03-17T02:42:47.418Z,100914
2015-03-17T02:43:06.105Z,100912
2015-03-17T02:43:24.793Z,100920
2015-03-17T02:43:43.480Z,100912
2015-03-17T02:44:02.155Z,100920
2015-03-17T02:44:20.843Z,100914
2015-03-17T02:44:39.546Z,100914
2015-03-17T02:44:58.251Z,100917
2015-03-17T02:45:16.923Z,100912
2015-03-17T02:45:35.610Z,100917
2015-03-17T02:45:54.315Z,100914
2015-03-17T02:46:13.018Z,100917
2015-03-17T02:46:31.706Z,100917
2015-03-17T02:46:50.427Z,100911
2015-03-17T02:47:09.099Z,100920
2015-03-17T02:47:27.927Z,100914
2015-03-17T02:47:46.614Z,100911
2015-03-17T02:48:05.305Z,100920
2015-03-17T02:48:23.992Z,100908
2015-03-17T02:48:42.695Z,100911
2015-03-17T02:49:01.369Z,100926
2015-03-17T02:49:20.057Z,100917
2015-03-17T02:49:38.744Z,100917
2015-03-17T02:49:57.449Z,100914
2015-03-17T02:50:16.152Z,100908
2015-03-17T02:50:34.824Z,100906
2015-03-17T02:50:53.515Z,100923
2015-03-17T02:51:12.218Z,100908
2015-03-17T02:51:30.905Z,100900
2015-03-17T02:51:49.577Z,100914
2015-03-17T02:52:08.267Z,100917
2015-03-17T02:52:26.970Z,100917
2015-03-17T02:52:45.642Z,100911
2015-03-17T02:53:04.316Z,100911
2015-03-17T02:53:23.019Z,100914
2015-03-17T02:53:41.706Z,100908
2015-03-17T02:54:00.412Z,100908
2015-03-17T02:54:19.116Z,100914
2015-03-17T02:54:37.803Z,100920
2015-03-17T02:54:56.493Z,100908
2015-03-17T02:55:15.164Z,100908
2015-03-17T02:55:33.868Z,100905
2015-03-17T02:55:52.555Z,100917
2015-03-17T02:56:11.246Z,100911
2015-03-17T02:56:29.933Z,100917
2015-03-17T02:56:48.636Z,100905
2015-03-17T02:57:07.326Z,100900
2015-03-17T02:57:26.013Z,100897
2015-03-17T02:57:44.701Z,100914
2015-03-17T02:58:03.406Z,100914
2015-03-17T02:58:22.093Z,100911
2015-03-17T02:58:40.781Z,100905
2015-03-17T02:58:59.471Z,100908
2015-03-17T02:59:18.174Z,100905
2015-03-17T02:59:36.878Z,100908
2015-03-17T02:59:55.551Z,100902
2015-03-17T03:00:14.255Z,100908
2015-03-17T03:00:32.942Z,100917
2015-03-17T03:00:51.630Z,100905
2015-03-17T03:01:10.350Z,100911
2015-03-17T03:01:29.022Z,100902
2015-03-17T03:01:47.710Z,100919
2015-03-17T03:02:06.431Z,100914
2015-03-17T03:02:25.103Z,100911
2015-03-17T03:02:43.806Z,100900
2015-03-17T03:03:02.496Z,100897
2015-03-17T03:03:21.168Z,100900
2015-03-17T03:03:39.871Z,100917
2015-03-17T03:03:58.560Z,100908
2015-03-17T03:04:17.279Z,100914
2015-03-17T03:04:35.951Z,100911
2015-03-17T03:04:54.639Z,100914
2015-03-17T03:05:13.345Z,100908
2015-03-17T03:05:32.032Z,100908
2015-03-17T03:05:50.720Z,100906
2015-03-17T03:06:09.425Z,100903
2015-03-17T03:06:28.112Z,100903
2015-03-17T03:06:46.800Z,100900
2015-03-17T03:07:05.489Z,100914
2015-03-17T03:07:24.161Z,100897
2015-03-17T03:07:42.849Z,100908
2015-03-17T03:08:01.555Z,100905
2015-03-17T03:08:20.258Z,100905
2015-03-17T03:08:38.945Z,100920
2015-03-17T03:08:57.633Z,100908
2015-03-17T03:09:16.354Z,100911
2015-03-17T03:09:35.041Z,100914
2015-03-17T03:09:53.729Z,100917
2015-03-17T03:10:12.435Z,100911
2015-03-17T03:10:31.154Z,100917
2015-03-17T03:10:49.841Z,100906
2015-03-17T03:11:08.530Z,100906
2015-03-17T03:11:27.217Z,100906
2015-03-17T03:11:45.920Z,100909
2015-03-17T03:12:04.595Z,100909
2015-03-17T03:12:23.298Z,100894
2015-03-17T03:12:41.986Z,100906
2015-03-17T03:13:00.673Z,100903
2015-03-17T03:13:19.363Z,100906
2015-03-17T03:13:38.035Z,100906
2015-03-17T03:13:56.738Z,100897
2015-03-17T03:14:15.413Z,100912
2015-03-17T03:14:34.116Z,100906
2015-03-17T03:14:52.788Z,100912
2015-03-17T03:15:11.493Z,100903
2015-03-17T03:15:30.180Z,100917
2015-03-17T03:15:48.868Z,100912
2015-03-17T03:16:07.558Z,100912
2015-03-17T03:16:26.261Z,100912
2015-03-17T03:16:44.949Z,100918
2015-03-17T03:17:03.652Z,100915
2015-03-17T03:17:22.341Z,100912
2015-03-17T03:17:41.029Z,100920
2015-03-17T03:17:59.716Z,100915
2015-03-17T03:18:18.390Z,100915
2015-03-17T03:18:37.078Z,100906
2015-03-17T03:18:55.765Z,100912
2015-03-17T03:19:14.455Z,100912
2015-03-17T03:19:33.142Z,100906
2015-03-17T03:19:51.845Z,100909
2015-03-17T03:20:10.536Z,100915
2015-03-17T03:20:29.239Z,100915
2015-03-17T03:20:47.927Z,100906
2015-03-17T03:21:06.614Z,100898
2015-03-17T03:21:25.304Z,100906
2015-03-17T03:21:43.991Z,100912
2015-03-17T03:22:02.694Z,100901
2015-03-17T03:22:21.384Z,100909
2015-03-17T03:22:40.056Z,100912
2015-03-17T03:22:58.743Z,100909
2015-03-17T03:23:17.418Z,100909
2015-03-17T03:23:36.105Z,100895
2015-03-17T03:23:54.793Z,100909
2015-03-17T03:24:13.526Z,100901
2015-03-17T03:24:32.213Z,100915
2015-03-17T03:24:50.901Z,100909
2015-03-17T03:25:09.588Z,100906
2015-03-17T03:25:28.306Z,100912
2015-03-17T03:25:46.994Z,100915
2015-03-17T03:26:05.681Z,100904
2015-03-17T03:26:24.415Z,100909
2015-03-17T03:26:43.071Z,100915
2015-03-17T03:27:01.774Z,100909
2015-03-17T03:27:20.492Z,100921
2015-03-17T03:27:39.179Z,100918
2015-03-17T03:27:57.835Z,100921
2015-03-17T03:28:16.538Z,100912
2015-03-17T03:28:35.210Z,100921
2015-03-17T03:28:53.913Z,100918
2015-03-17T03:29:12.600Z,100918
2015-03-17T03:29:31.434Z,100915
2015-03-17T03:29:50.122Z,100927
2015-03-17T03:30:08.794Z,100924
2015-03-17T03:30:27.488Z,100921
2015-03-17T03:30:46.176Z,100924
2015-03-17T03:31:04.863Z,100929
2015-03-17T03:31:23.557Z,100921
2015-03-17T03:31:42.244Z,100927
2015-03-17T03:32:00.932Z,100921
2015-03-17T03:32:19.626Z,100924
2015-03-17T03:32:38.314Z,100929
2015-03-17T03:32:57.001Z,100909
2015-03-17T03:33:15.679Z,100912
2015-03-17T03:33:34.367Z,100938
2015-03-17T03:33:53.070Z,100918
2015-03-17T03:34:11.757Z,100918
2015-03-17T03:34:30.449Z,100929
2015-03-17T03:34:49.121Z,100921
2015-03-17T03:35:07.824Z,100924
2015-03-17T03:35:26.531Z,100924
2015-03-17T03:35:44.578Z,100927
2015-03-17T03:36:03.265Z,100924
2015-03-17T03:36:21.972Z,100924
2015-03-17T03:36:40.676Z,100924
2015-03-17T03:36:59.347Z,100927
2015-03-17T03:37:18.039Z,100915
2015-03-17T03:37:36.742Z,100921
2015-03-17T03:37:55.398Z,100927
2015-03-17T03:38:14.086Z,100924
2015-03-17T03:38:32.762Z,100924
2015-03-17T03:38:51.449Z,100921
2015-03-17T03:39:10.152Z,100927
2015-03-17T03:39:28.843Z,100941
2015-03-17T03:39:47.530Z,100927
2015-03-17T03:40:06.218Z,100929
2015-03-17T03:40:24.908Z,100929
2015-03-17T03:40:43.580Z,100929
2015-03-17T03:41:02.252Z,100921
2015-03-17T03:41:20.943Z,100938
2015-03-17T03:41:39.630Z,100932
2015-03-17T03:41:58.302Z,100924
2015-03-17T03:42:17.005Z,100938
2015-03-17T03:42:35.680Z,100941
2015-03-17T03:42:54.367Z,100946
2015-03-17T03:43:13.039Z,100946
2015-03-17T03:43:31.730Z,100935
2015-03-17T03:43:50.417Z,100935
2015-03-17T03:44:09.105Z,100941
2015-03-17T03:44:27.811Z,100944
2015-03-17T03:44:46.498Z,100952
2015-03-17T03:45:05.202Z,100938
2015-03-17T03:45:23.891Z,100949
2015-03-17T03:45:42.579Z,100949
2015-03-17T03:46:01.266Z,100949
2015-03-17T03:46:19.954Z,100949
2015-03-17T03:46:38.627Z,100946
2015-03-17T03:46:57.331Z,100952
2015-03-17T03:47:16.002Z,100955
2015-03-17T03:47:34.692Z,100966
2015-03-17T03:47:53.364Z,100949
2015-03-17T03:48:12.036Z,100966
2015-03-17T03:48:30.711Z,100949
2015-03-17T03:48:49.398Z,100952
2015-03-17T03:49:08.086Z,100949
2015-03-17T03:49:26.759Z,100955
2015-03-17T03:49:45.431Z,100947
2015-03-17T03:50:04.134Z,100949
2015-03-17T03:50:22.806Z,100952
2015-03-17T03:50:41.511Z,100961
2015-03-17T03:51:00.199Z,100952
2015-03-17T03:51:18.902Z,100952
2015-03-17T03:51:37.577Z,100958
2015-03-17T03:51:56.264Z,100958
2015-03-17T03:52:14.983Z,100955
2015-03-17T03:52:33.673Z,100952
2015-03-17T03:52:52.360Z,100955
2015-03-17T03:53:11.032Z,100946